SIM037 EDDB-EDNY
Flight info
| Callsign | SIM037 |
|---|---|
| Flight time | N/A |
| Altitude | 20000 |
| Route | KISUC1B/06L KISUC Z20 ORTAG/N0237F190 Z117 KEGOS N869 TEDGO N851 LOKTA T122 ARFAS |
| Aircraft | DC6/M-SDFGIRWYZ/LB1D1 |
Departure
| Time | 2026-05-05 13:43 |
|---|---|
| Airport | Berlin Brandenburg Airport (EDDB) |
Arrival
| Time | N/A |
|---|---|
| Airport | Bodensee Airport Friedrichshafen (EDNY) |
| Time | Latitude | Longitude | Altitude | Speed | Heading |
|---|---|---|---|---|---|
| 2026-05-05 13:15 | 52.36316 | 13.49632 | 154 ft | 0 kts | 68° |
| 2026-05-05 13:37 | 52.36318 | 13.49641 | 154 ft | 0 kts | 68° |
| 2026-05-05 13:37 | 52.36324 | 13.49668 | 155 ft | 6 kts | 68° |
| 2026-05-05 13:37 | 52.36346 | 13.49718 | 154 ft | 6 kts | 19° |
| 2026-05-05 13:37 | 52.36405 | 13.49695 | 152 ft | 11 kts | 338° |
| 2026-05-05 13:38 | 52.36479 | 13.49642 | 151 ft | 11 kts | 336° |
| 2026-05-05 13:38 | 52.36544 | 13.49597 | 152 ft | 10 kts | 338° |
| 2026-05-05 13:38 | 52.36609 | 13.49561 | 153 ft | 10 kts | 340° |
| 2026-05-05 13:38 | 52.36663 | 13.49487 | 154 ft | 10 kts | 283° |
| 2026-05-05 13:39 | 52.36652 | 13.49397 | 154 ft | 7 kts | 250° |
| 2026-05-05 13:39 | 52.36633 | 13.49317 | 154 ft | 9 kts | 248° |
| 2026-05-05 13:39 | 52.36606 | 13.49206 | 154 ft | 12 kts | 248° |
| 2026-05-05 13:39 | 52.36577 | 13.49088 | 154 ft | 13 kts | 252° |
| 2026-05-05 13:40 | 52.36536 | 13.48915 | 152 ft | 19 kts | 248° |
| 2026-05-05 13:40 | 52.36482 | 13.48688 | 151 ft | 22 kts | 249° |
| 2026-05-05 13:40 | 52.36442 | 13.48477 | 149 ft | 15 kts | 273° |
| 2026-05-05 13:40 | 52.36508 | 13.48363 | 147 ft | 15 kts | 335° |
| 2026-05-05 13:41 | 52.36600 | 13.48314 | 148 ft | 12 kts | 342° |
| 2026-05-05 13:41 | 52.36681 | 13.48287 | 150 ft | 10 kts | 9° |
| 2026-05-05 13:41 | 52.36726 | 13.48332 | 152 ft | 0 kts | 56° |
| 2026-05-05 13:41 | 52.36744 | 13.48388 | 152 ft | 19 kts | 65° |
| 2026-05-05 13:42 | 52.36852 | 13.48829 | 153 ft | 66 kts | 68° |
| 2026-05-05 13:42 | 52.37072 | 13.49752 | 159 ft | 106 kts | 69° |
| 2026-05-05 13:42 | 52.37327 | 13.50957 | 302 ft | 117 kts | 72° |
| 2026-05-05 13:42 | 52.37588 | 13.52282 | 467 ft | 131 kts | 72° |
| 2026-05-05 13:43 | 52.37894 | 13.53832 | 630 ft | 148 kts | 71° |
| 2026-05-05 13:43 | 52.38200 | 13.55418 | 1092 ft | 143 kts | 72° |
| 2026-05-05 13:43 | 52.38508 | 13.56958 | 1553 ft | 142 kts | 71° |
| 2026-05-05 13:43 | 52.38795 | 13.58536 | 1882 ft | 147 kts | 71° |
| 2026-05-05 13:44 | 52.39085 | 13.60156 | 2160 ft | 150 kts | 71° |
| 2026-05-05 13:44 | 52.39403 | 13.61793 | 2392 ft | 152 kts | 70° |
| 2026-05-05 13:44 | 52.39733 | 13.63441 | 2626 ft | 153 kts | 72° |
| 2026-05-05 13:44 | 52.39555 | 13.65156 | 2732 ft | 163 kts | 127° |
| 2026-05-05 13:45 | 52.38560 | 13.65925 | 2931 ft | 162 kts | 182° |
| 2026-05-05 13:45 | 52.37459 | 13.65975 | 3246 ft | 157 kts | 172° |
| 2026-05-05 13:45 | 52.36376 | 13.66224 | 3496 ft | 158 kts | 171° |
| 2026-05-05 13:45 | 52.35308 | 13.66700 | 3658 ft | 164 kts | 165° |
| 2026-05-05 13:46 | 52.34187 | 13.67178 | 3852 ft | 169 kts | 167° |
| 2026-05-05 13:46 | 52.33031 | 13.67669 | 4065 ft | 173 kts | 167° |
| 2026-05-05 13:46 | 52.31841 | 13.68167 | 4307 ft | 175 kts | 170° |
| 2026-05-05 13:46 | 52.30650 | 13.68026 | 4483 ft | 176 kts | 203° |
| 2026-05-05 13:47 | 52.29708 | 13.66802 | 4695 ft | 175 kts | 237° |
| 2026-05-05 13:47 | 52.29354 | 13.64928 | 4938 ft | 175 kts | 270° |
| 2026-05-05 13:47 | 52.29540 | 13.62977 | 5208 ft | 173 kts | 278° |
| 2026-05-05 13:47 | 52.29546 | 13.61017 | 5442 ft | 174 kts | 261° |
| 2026-05-05 13:48 | 52.29262 | 13.59094 | 5702 ft | 174 kts | 256° |
| 2026-05-05 13:48 | 52.28962 | 13.57176 | 5956 ft | 175 kts | 256° |
| 2026-05-05 13:48 | 52.28658 | 13.55249 | 6209 ft | 175 kts | 256° |
| 2026-05-05 13:48 | 52.28355 | 13.53320 | 6460 ft | 176 kts | 256° |
| 2026-05-05 13:49 | 52.28049 | 13.51382 | 6716 ft | 176 kts | 256° |
| 2026-05-05 13:49 | 52.27743 | 13.49441 | 6951 ft | 177 kts | 256° |
| 2026-05-05 13:49 | 52.27434 | 13.47499 | 7208 ft | 177 kts | 255° |
| 2026-05-05 13:49 | 52.27127 | 13.45555 | 7453 ft | 177 kts | 256° |
| 2026-05-05 13:50 | 52.26821 | 13.43606 | 7712 ft | 177 kts | 256° |
| 2026-05-05 13:50 | 52.26510 | 13.41659 | 7972 ft | 177 kts | 255° |
| 2026-05-05 13:50 | 52.26200 | 13.39704 | 8225 ft | 178 kts | 255° |
| 2026-05-05 13:50 | 52.25889 | 13.37756 | 8479 ft | 178 kts | 255° |
| 2026-05-05 13:51 | 52.25584 | 13.35826 | 8731 ft | 178 kts | 255° |
| 2026-05-05 13:51 | 52.25271 | 13.33868 | 8994 ft | 178 kts | 255° |
| 2026-05-05 13:51 | 52.24959 | 13.31911 | 9251 ft | 178 kts | 255° |
| 2026-05-05 13:51 | 52.24647 | 13.29956 | 9517 ft | 178 kts | 255° |
| 2026-05-05 13:52 | 52.24334 | 13.27998 | 9772 ft | 178 kts | 255° |
| 2026-05-05 13:52 | 52.24020 | 13.26037 | 10007 ft | 178 kts | 255° |
| 2026-05-05 13:52 | 52.23707 | 13.24081 | 10245 ft | 178 kts | 255° |
| 2026-05-05 13:52 | 52.23391 | 13.22124 | 10470 ft | 178 kts | 255° |
| 2026-05-05 13:53 | 52.23079 | 13.20168 | 10700 ft | 178 kts | 255° |
| 2026-05-05 13:53 | 52.22762 | 13.18208 | 10944 ft | 179 kts | 255° |
| 2026-05-05 13:53 | 52.22447 | 13.16243 | 11189 ft | 179 kts | 255° |
| 2026-05-05 13:53 | 52.22134 | 13.14305 | 11413 ft | 179 kts | 254° |
| 2026-05-05 13:54 | 52.21817 | 13.12339 | 11652 ft | 179 kts | 254° |
| 2026-05-05 13:54 | 52.21500 | 13.10373 | 11891 ft | 179 kts | 254° |
| 2026-05-05 13:54 | 52.21181 | 13.08406 | 12137 ft | 179 kts | 254° |
| 2026-05-05 13:54 | 52.20862 | 13.06440 | 12379 ft | 180 kts | 254° |
| 2026-05-05 13:55 | 52.20543 | 13.04470 | 12623 ft | 180 kts | 254° |
| 2026-05-05 13:55 | 52.20223 | 13.02496 | 12868 ft | 180 kts | 254° |
| 2026-05-05 13:55 | 52.19902 | 13.00524 | 13106 ft | 180 kts | 254° |
| 2026-05-05 13:55 | 52.19581 | 12.98543 | 13349 ft | 181 kts | 254° |
| 2026-05-05 13:56 | 52.19255 | 12.96551 | 13543 ft | 182 kts | 253° |
| 2026-05-05 13:56 | 52.18928 | 12.94549 | 13742 ft | 183 kts | 253° |
| 2026-05-05 13:56 | 52.18601 | 12.92539 | 13929 ft | 184 kts | 253° |
| 2026-05-05 13:56 | 52.18381 | 12.91198 | 14063 ft | 184 kts | 253° |
| 2026-05-05 13:57 | 52.18048 | 12.89161 | 14184 ft | 188 kts | 253° |
| 2026-05-05 13:57 | 52.17595 | 12.86397 | 14376 ft | 192 kts | 253° |
| 2026-05-05 13:57 | 52.17361 | 12.84976 | 14479 ft | 193 kts | 253° |
| 2026-05-05 13:57 | 52.17015 | 12.82860 | 14633 ft | 194 kts | 253° |
| 2026-05-05 13:58 | 52.16665 | 12.80733 | 14812 ft | 194 kts | 253° |
| 2026-05-05 13:58 | 52.16324 | 12.78658 | 15035 ft | 191 kts | 253° |
| 2026-05-05 13:58 | 52.15981 | 12.76581 | 15243 ft | 189 kts | 253° |
| 2026-05-05 13:58 | 52.15641 | 12.74520 | 15444 ft | 188 kts | 253° |
| 2026-05-05 13:59 | 52.14967 | 12.70442 | 15823 ft | 185 kts | 253° |
| 2026-05-05 13:59 | 52.14631 | 12.68421 | 15977 ft | 186 kts | 253° |
| 2026-05-05 14:00 | 52.13965 | 12.64399 | 16198 ft | 181 kts | 253° |
| 2026-05-05 14:00 | 52.13653 | 12.62421 | 16268 ft | 180 kts | 256° |
| 2026-05-05 14:00 | 52.13324 | 12.60439 | 16371 ft | 183 kts | 252° |
| 2026-05-05 14:00 | 52.12959 | 12.58437 | 16539 ft | 185 kts | 253° |
| 2026-05-05 14:01 | 52.12631 | 12.56422 | 16774 ft | 183 kts | 254° |
| 2026-05-05 14:01 | 52.12302 | 12.54433 | 16985 ft | 182 kts | 253° |
| 2026-05-05 14:01 | 52.11976 | 12.52474 | 17177 ft | 181 kts | 253° |
| 2026-05-05 14:01 | 52.11646 | 12.50496 | 17369 ft | 181 kts | 253° |
| 2026-05-05 14:02 | 52.11314 | 12.48521 | 17561 ft | 180 kts | 253° |
| 2026-05-05 14:02 | 52.10984 | 12.46551 | 17741 ft | 180 kts | 253° |
| 2026-05-05 14:02 | 52.10653 | 12.44575 | 17919 ft | 181 kts | 253° |
| 2026-05-05 14:02 | 52.10320 | 12.42600 | 18098 ft | 181 kts | 253° |
| 2026-05-05 14:03 | 52.09988 | 12.40628 | 18267 ft | 181 kts | 253° |
| 2026-05-05 14:03 | 52.09660 | 12.38681 | 18419 ft | 181 kts | 253° |
| 2026-05-05 14:03 | 52.09328 | 12.36709 | 18592 ft | 181 kts | 253° |
| 2026-05-05 14:03 | 52.08995 | 12.34741 | 18732 ft | 180 kts | 253° |
| 2026-05-05 14:04 | 52.08662 | 12.32773 | 18880 ft | 181 kts | 253° |
| 2026-05-05 14:04 | 52.08328 | 12.30799 | 19030 ft | 181 kts | 253° |
| 2026-05-05 14:04 | 52.07992 | 12.28818 | 19153 ft | 183 kts | 253° |
| 2026-05-05 14:04 | 52.07652 | 12.26814 | 19289 ft | 184 kts | 253° |
| 2026-05-05 14:05 | 52.07310 | 12.24797 | 19413 ft | 185 kts | 253° |
| 2026-05-05 14:05 | 52.06964 | 12.22773 | 19553 ft | 186 kts | 252° |
| 2026-05-05 14:05 | 52.06620 | 12.20738 | 19689 ft | 187 kts | 252° |
| 2026-05-05 14:05 | 52.06271 | 12.18699 | 19779 ft | 190 kts | 252° |
| 2026-05-05 14:06 | 52.05915 | 12.16610 | 19838 ft | 194 kts | 252° |
| 2026-05-05 14:06 | 52.05551 | 12.14488 | 19851 ft | 200 kts | 252° |
| 2026-05-05 14:06 | 52.05174 | 12.12279 | 19851 ft | 205 kts | 252° |
| 2026-05-05 14:06 | 52.04787 | 12.10026 | 19853 ft | 208 kts | 253° |
| 2026-05-05 14:07 | 52.04398 | 12.07748 | 19849 ft | 210 kts | 252° |
| 2026-05-05 14:07 | 52.04002 | 12.05441 | 19849 ft | 213 kts | 252° |
| 2026-05-05 14:07 | 52.03598 | 12.03102 | 19851 ft | 216 kts | 252° |
| 2026-05-05 14:07 | 52.03191 | 12.00733 | 19852 ft | 219 kts | 253° |
| 2026-05-05 14:08 | 52.02778 | 11.98337 | 19855 ft | 221 kts | 252° |
| 2026-05-05 14:08 | 52.02360 | 11.95920 | 19855 ft | 223 kts | 252° |
| 2026-05-05 14:08 | 52.01939 | 11.93472 | 19853 ft | 225 kts | 252° |
| 2026-05-05 14:08 | 52.01512 | 11.91011 | 19851 ft | 228 kts | 252° |
| 2026-05-05 14:09 | 52.01081 | 11.88526 | 19850 ft | 229 kts | 252° |
| 2026-05-05 14:09 | 52.00653 | 11.86062 | 19854 ft | 231 kts | 252° |
| 2026-05-05 14:09 | 52.00216 | 11.83548 | 19853 ft | 232 kts | 252° |
| 2026-05-05 14:09 | 51.99775 | 11.81025 | 19854 ft | 232 kts | 252° |
| 2026-05-05 14:10 | 51.99053 | 11.78708 | 19829 ft | 232 kts | 231° |
| 2026-05-05 14:10 | 51.97864 | 11.76956 | 19859 ft | 231 kts | 219° |
| 2026-05-05 14:10 | 51.96605 | 11.75319 | 19860 ft | 232 kts | 221° |
| 2026-05-05 14:10 | 51.95385 | 11.73589 | 19857 ft | 233 kts | 223° |
| 2026-05-05 14:11 | 51.94169 | 11.71834 | 19859 ft | 234 kts | 223° |
| 2026-05-05 14:11 | 51.92945 | 11.70088 | 19858 ft | 235 kts | 222° |
| 2026-05-05 14:11 | 51.91712 | 11.68340 | 19858 ft | 236 kts | 222° |
| 2026-05-05 14:11 | 51.90475 | 11.66582 | 19861 ft | 236 kts | 222° |
| 2026-05-05 14:12 | 51.89236 | 11.64825 | 19859 ft | 237 kts | 222° |
| 2026-05-05 14:12 | 51.87996 | 11.63064 | 19863 ft | 237 kts | 222° |
| 2026-05-05 14:12 | 51.86752 | 11.61301 | 19859 ft | 238 kts | 222° |
| 2026-05-05 14:12 | 51.85504 | 11.59535 | 19860 ft | 239 kts | 222° |
| 2026-05-05 14:13 | 51.84253 | 11.57764 | 19861 ft | 239 kts | 222° |
| 2026-05-05 14:13 | 51.83003 | 11.55997 | 19862 ft | 239 kts | 222° |
| 2026-05-05 14:13 | 51.81751 | 11.54228 | 19860 ft | 239 kts | 222° |
| 2026-05-05 14:13 | 51.80514 | 11.52481 | 19858 ft | 239 kts | 222° |
| 2026-05-05 14:14 | 51.79260 | 11.50713 | 19858 ft | 239 kts | 222° |
| 2026-05-05 14:14 | 51.78008 | 11.48946 | 19860 ft | 239 kts | 222° |
| 2026-05-05 14:14 | 51.76752 | 11.47178 | 19860 ft | 239 kts | 222° |
| 2026-05-05 14:14 | 51.75499 | 11.45413 | 19859 ft | 239 kts | 222° |